Time;durP1;ratioP1;P1;durP2;ratioP2;P2;SDS_P1;SDS_P2;PMS_P1;PMS_P2;Temp;Humidity;BMP_temperature;BMP_pressure;BME280_temperature;BME280_humidity;BME280_pressure;Samples;Min_cycle;Max_cycle;Signal;HPM_P1;HPM_P2
2021/11/26 00:01:46;;;;;;;16.23;8.95;;;4.50;76.60;;;;;;5021995;28;20061;-68
2021/11/26 00:04:16;;;;;;;17.38;8.00;;;4.50;76.60;;;;;;4994786;28;20226;-63
2021/11/26 00:06:52;;;;;;;20.73;9.32;;;4.50;76.60;;;;;;5001191;28;20053;-64
2021/11/26 00:09:19;;;;;;;20.13;9.52;;;4.50;76.70;;;;;;5005753;28;20073;-65
2021/11/26 00:11:53;;;;;;;20.35;8.20;;;4.50;76.70;;;;;;5004434;28;20053;-67
2021/11/26 00:14:23;;;;;;;19.98;8.18;;;4.50;76.80;;;;;;5001397;28;20415;-64
2021/11/26 00:16:57;;;;;;;21.40;9.60;;;4.50;76.80;;;;;;5003013;28;20068;-64
2021/11/26 00:19:25;;;;;;;22.75;9.25;;;4.50;76.70;;;;;;4991767;28;20112;-63
2021/11/26 00:21:52;;;;;;;17.42;8.70;;;4.50;76.70;;;;;;4995550;28;20050;-64
2021/11/26 00:24:19;;;;;;;19.25;8.45;;;4.50;76.70;;;;;;5007811;28;20049;-63
2021/11/26 00:26:47;;;;;;;19.38;8.52;;;4.50;76.70;;;;;;4990043;28;20050;-64
2021/11/26 00:29:17;;;;;;;18.73;8.60;;;4.50;76.80;;;;;;4996037;28;20052;-64
2021/11/26 00:31:45;;;;;;;21.48;8.73;;;4.50;76.70;;;;;;5004004;28;20046;-65
2021/11/26 00:34:12;;;;;;;20.60;8.20;;;4.60;76.80;;;;;;5005011;28;20053;-65
2021/11/26 00:36:39;;;;;;;17.48;8.15;;;4.60;76.90;;;;;;5005836;28;20046;-64
2021/11/26 00:39:07;;;;;;;18.90;8.60;;;4.60;76.80;;;;;;4998470;28;20045;-63
2021/11/26 00:41:34;;;;;;;21.92;10.20;;;4.60;76.80;;;;;;5000676;28;20041;-65
2021/11/26 00:44:01;;;;;;;22.00;9.30;;;4.60;76.70;;;;;;4998516;28;20046;-63
2021/11/26 00:46:35;;;;;;;19.90;9.00;;;4.60;76.70;;;;;;4996011;28;20129;-64
2021/11/26 00:49:03;;;;;;;19.98;7.75;;;4.60;76.80;;;;;;4999752;28;20056;-63
2021/11/26 00:51:31;;;;;;;16.85;8.50;;;4.60;76.80;;;;;;4996483;28;20046;-64
2021/11/26 00:53:58;;;;;;;21.00;8.43;;;4.50;76.80;;;;;;4991516;28;20518;-63
2021/11/26 00:56:25;;;;;;;18.45;8.38;;;4.50;76.80;;;;;;4990846;28;20053;-64
2021/11/26 00:58:52;;;;;;;18.70;8.82;;;4.50;76.70;;;;;;5000780;28;20046;-65
2021/11/26 01:01:19;;;;;;;21.55;9.50;;;4.50;76.70;;;;;;5000977;28;20510;-64
2021/11/26 01:03:48;;;;;;;20.27;8.10;;;4.50;76.70;;;;;;4994056;28;20507;-63
2021/11/26 01:06:15;;;;;;;20.00;9.20;;;4.40;76.70;;;;;;4994439;28;20340;-64
2021/11/26 01:08:42;;;;;;;16.05;8.00;;;4.40;76.70;;;;;;4993077;28;20046;-65
2021/11/26 01:11:09;;;;;;;19.33;8.80;;;4.40;76.60;;;;;;4996191;28;20129;-65
2021/11/26 01:13:36;;;;;;;21.08;9.15;;;4.40;76.70;;;;;;4996030;28;20496;-64
2021/11/26 01:16:03;;;;;;;22.60;8.65;;;4.30;76.70;;;;;;4993671;28;20050;-66
2021/11/26 01:18:30;;;;;;;15.10;7.32;;;4.30;76.60;;;;;;4994942;28;20088;-64
2021/11/26 01:20:58;;;;;;;19.55;9.35;;;4.30;76.80;;;;;;4984480;28;20488;-64
2021/11/26 01:23:25;;;;;;;17.17;7.40;;;4.20;76.80;;;;;;4990484;28;20519;-65
2021/11/26 01:25:53;;;;;;;18.50;8.32;;;4.20;76.80;;;;;;4994474;28;20049;-64
2021/11/26 01:28:20;;;;;;;18.55;8.88;;;4.20;77.00;;;;;;4994045;28;20506;-63
2021/11/26 01:30:47;;;;;;;17.10;8.55;;;4.20;77.10;;;;;;4998295;28;20129;-67
2021/11/26 01:33:17;;;;;;;19.88;9.07;;;4.20;77.20;;;;;;4988404;28;20081;-65
2021/11/26 01:35:45;;;;;;;22.35;9.93;;;4.20;77.20;;;;;;4992602;28;20541;-64
2021/11/26 01:38:14;;;;;;;17.08;8.68;;;4.20;77.20;;;;;;4988177;28;20062;-64
2021/11/26 01:40:44;;;;;;;23.23;8.95;;;4.20;77.30;;;;;;4987901;28;20069;-64
2021/11/26 01:43:13;;;;;;;19.00;8.48;;;4.20;77.30;;;;;;4995119;28;21314;-64
2021/11/26 01:45:43;;;;;;;13.50;7.18;;;4.20;77.20;;;;;;4994065;28;20510;-64
2021/11/26 01:48:10;;;;;;;20.97;9.47;;;4.30;77.20;;;;;;4992652;28;20073;-65
2021/11/26 01:50:37;;;;;;;16.52;8.48;;;4.30;77.20;;;;;;4991322;28;20051;-65
2021/11/26 01:53:04;;;;;;;19.42;8.60;;;4.20;77.30;;;;;;4994509;28;20164;-64
2021/11/26 01:55:33;;;;;;;18.65;7.68;;;4.30;77.40;;;;;;4995641;28;20129;-70
2021/11/26 01:58:01;;;;;;;16.00;7.40;;;4.30;77.40;;;;;;4992119;28;20358;-65
2021/11/26 02:00:33;;;;;;;15.80;7.80;;;4.20;77.40;;;;;;4985406;28;20042;-66
2021/11/26 02:03:00;;;;;;;15.18;7.05;;;4.30;77.40;;;;;;4996644;28;20052;-64
2021/11/26 02:05:33;;;;;;;18.50;8.63;;;4.20;77.40;;;;;;5015647;28;20065;-64
2021/11/26 02:08:00;;;;;;;17.20;8.68;;;4.30;77.30;;;;;;5012673;28;20407;-65
2021/11/26 02:10:30;;;;;;;15.15;8.75;;;4.30;77.40;;;;;;5003492;28;20044;-65
2021/11/26 02:12:58;;;;;;;15.68;7.72;;;4.30;77.40;;;;;;4998082;28;20125;-66
2021/11/26 02:15:28;;;;;;;19.98;7.57;;;4.30;77.40;;;;;;5001629;28;20436;-65
2021/11/26 02:17:57;;;;;;;17.08;7.50;;;4.30;77.40;;;;;;4995850;28;20547;-65
2021/11/26 02:20:27;;;;;;;15.73;6.95;;;4.30;77.40;;;;;;4996715;28;20487;-64
2021/11/26 02:22:56;;;;;;;18.05;8.30;;;4.30;77.40;;;;;;5001297;28;20503;-65
2021/11/26 02:25:24;;;;;;;22.58;9.05;;;4.30;77.40;;;;;;5007261;28;20053;-65
2021/11/26 02:27:53;;;;;;;14.85;7.28;;;4.30;77.50;;;;;;5008893;28;20124;-65
2021/11/26 02:30:20;;;;;;;17.35;8.20;;;4.30;77.50;;;;;;5002511;28;20125;-65
2021/11/26 02:33:02;;;;;;;17.42;8.55;;;4.30;77.40;;;;;;5014234;28;20042;-66
2021/11/26 02:35:34;;;;;;;17.95;8.10;;;4.30;77.50;;;;;;5003998;28;20068;-64
2021/11/26 02:38:02;;;;;;;17.48;7.32;;;4.30;77.50;;;;;;5003605;28;20136;-66
2021/11/26 02:40:34;;;;;;;19.17;7.75;;;4.30;77.60;;;;;;5000567;28;20479;-65
2021/11/26 02:43:02;;;;;;;18.00;7.45;;;4.30;77.60;;;;;;5006524;28;20388;-64
2021/11/26 02:45:31;;;;;;;17.77;7.45;;;4.30;77.60;;;;;;5002814;28;20045;-65
2021/11/26 02:48:00;;;;;;;20.10;8.55;;;4.30;77.60;;;;;;5001273;28;20125;-65
2021/11/26 02:50:32;;;;;;;15.75;8.23;;;4.30;77.50;;;;;;5001537;28;20052;-65
2021/11/26 02:53:01;;;;;;;16.85;8.02;;;4.30;77.30;;;;;;5008232;28;20042;-66
2021/11/26 02:55:30;;;;;;;19.48;8.60;;;4.30;77.40;;;;;;4999668;28;20058;-66
2021/11/26 02:57:58;;;;;;;21.75;9.55;;;4.30;77.50;;;;;;5006529;28;20068;-64
2021/11/26 03:00:27;;;;;;;17.08;8.35;;;4.30;77.50;;;;;;5012033;28;20049;-65
2021/11/26 03:02:55;;;;;;;17.38;8.20;;;4.20;77.40;;;;;;5019036;28;20525;-65
2021/11/26 03:05:23;;;;;;;18.17;8.45;;;4.20;77.40;;;;;;5026593;28;20144;-64
2021/11/26 03:07:51;;;;;;;15.90;7.53;;;4.20;77.40;;;;;;5028869;28;20057;-64
2021/11/26 03:10:21;;;;;;;16.52;7.85;;;4.20;77.50;;;;;;5027001;28;20037;-65
2021/11/26 03:12:50;;;;;;;15.20;7.47;;;4.30;77.50;;;;;;5030261;28;20410;-65
2021/11/26 03:15:18;;;;;;;17.92;8.50;;;4.30;77.60;;;;;;5028657;28;20124;-66
2021/11/26 03:17:46;;;;;;;20.27;9.05;;;4.30;77.50;;;;;;5029655;28;20500;-65
2021/11/26 03:20:13;;;;;;;17.85;8.75;;;4.30;77.50;;;;;;5023224;28;20548;-66
2021/11/26 03:22:40;;;;;;;16.48;8.85;;;4.30;77.60;;;;;;5026018;28;20046;-64
2021/11/26 03:25:10;;;;;;;18.80;8.07;;;4.30;77.70;;;;;;5019946;28;20038;-65
2021/11/26 03:27:37;;;;;;;20.93;8.73;;;4.30;77.70;;;;;;5021203;28;20042;-66
2021/11/26 03:30:06;;;;;;;16.65;7.97;;;4.30;77.60;;;;;;5018225;28;20176;-64
2021/11/26 03:32:33;;;;;;;15.70;7.00;;;4.30;77.60;;;;;;5024065;28;20120;-64
2021/11/26 03:35:00;;;;;;;19.45;7.97;;;4.30;77.60;;;;;;5029065;28;20051;-66
2021/11/26 03:37:30;;;;;;;21.83;9.43;;;4.30;77.60;;;;;;5029565;28;20053;-65
2021/11/26 03:39:57;;;;;;;19.90;7.70;;;4.30;77.60;;;;;;5029302;28;20829;-64
2021/11/26 03:42:25;;;;;;;17.67;7.82;;;4.30;77.60;;;;;;5029039;28;20049;-66
2021/11/26 03:44:52;;;;;;;19.05;8.52;;;4.30;77.80;;;;;;5029299;28;20125;-64
2021/11/26 03:47:19;;;;;;;21.15;8.88;;;4.30;77.60;;;;;;5029929;28;20055;-64
2021/11/26 03:49:46;;;;;;;15.85;8.68;;;4.30;77.70;;;;;;5028146;28;20053;-65
2021/11/26 03:52:13;;;;;;;17.73;8.82;;;4.30;77.80;;;;;;5022868;28;20041;-66
2021/11/26 03:54:41;;;;;;;19.88;8.77;;;4.30;77.80;;;;;;5023836;28;20065;-66
2021/11/26 03:57:08;;;;;;;16.58;7.72;;;4.30;77.80;;;;;;5022307;28;20050;-66
2021/11/26 03:59:38;;;;;;;20.30;8.32;;;4.20;77.90;;;;;;5020956;28;20050;-64
2021/11/26 04:02:07;;;;;;;22.27;8.77;;;4.20;77.80;;;;;;5018848;28;20061;-65
2021/11/26 04:04:35;;;;;;;16.33;8.35;;;4.20;77.80;;;;;;5020322;28;20060;-66
2021/11/26 04:07:02;;;;;;;20.40;9.27;;;4.20;77.90;;;;;;5020466;28;20049;-66
2021/11/26 04:09:35;;;;;;;15.50;7.85;;;4.30;77.90;;;;;;5013232;28;20049;-65
2021/11/26 04:12:02;;;;;;;17.92;8.68;;;4.20;77.90;;;;;;5017514;28;20046;-65
2021/11/26 04:14:29;;;;;;;17.92;7.97;;;4.20;77.90;;;;;;5017266;28;20584;-64
2021/11/26 04:16:57;;;;;;;20.67;7.90;;;4.30;77.90;;;;;;5021039;28;20313;-65
2021/11/26 04:19:24;;;;;;;18.67;8.55;;;4.30;77.80;;;;;;5019554;28;20378;-65
2021/11/26 04:21:51;;;;;;;19.90;8.40;;;4.20;77.90;;;;;;5019525;28;20049;-65
2021/11/26 04:24:18;;;;;;;20.58;8.10;;;4.20;77.90;;;;;;5021058;28;20086;-65
2021/11/26 04:26:45;;;;;;;19.33;8.60;;;4.20;77.90;;;;;;5020068;28;20063;-66
2021/11/26 04:29:12;;;;;;;16.83;7.65;;;4.30;77.80;;;;;;5015120;28;20053;-65
2021/11/26 04:31:40;;;;;;;22.52;8.55;;;4.30;77.90;;;;;;5019603;28;20130;-66
2021/11/26 04:34:09;;;;;;;19.52;7.85;;;4.20;77.80;;;;;;5018500;28;20049;-65
2021/11/26 04:36:36;;;;;;;21.15;9.10;;;4.20;77.90;;;;;;5018685;28;20045;-64
2021/11/26 04:39:05;;;;;;;16.92;7.90;;;4.20;77.90;;;;;;5019079;28;20124;-65
2021/11/26 04:41:32;;;;;;;17.00;7.63;;;4.20;77.90;;;;;;5020034;28;20052;-65
2021/11/26 04:43:59;;;;;;;17.30;6.93;;;4.20;77.80;;;;;;5016057;28;20518;-66
2021/11/26 04:46:26;;;;;;;15.73;7.90;;;4.20;77.70;;;;;;5021699;28;20057;-65
2021/11/26 04:48:53;;;;;;;20.33;8.75;;;4.20;77.60;;;;;;5023786;28;20063;-65
2021/11/26 04:51:22;;;;;;;18.45;7.72;;;4.20;77.50;;;;;;5021411;28;20138;-66
2021/11/26 04:53:49;;;;;;;22.08;8.48;;;4.20;77.60;;;;;;5021200;28;20136;-66
2021/11/26 04:56:16;;;;;;;20.08;8.55;;;4.20;77.60;;;;;;5016894;28;20046;-64
2021/11/26 04:58:43;;;;;;;16.48;7.50;;;4.20;77.60;;;;;;5025456;28;20052;-66
2021/11/26 05:01:10;;;;;;;17.27;8.90;;;4.20;77.60;;;;;;5018163;28;20050;-65
2021/11/26 05:03:38;;;;;;;17.08;8.35;;;4.20;77.60;;;;;;5022509;28;20072;-64
2021/11/26 05:06:05;;;;;;;20.85;9.88;;;4.20;77.50;;;;;;5019980;28;20053;-64
2021/11/26 05:08:34;;;;;;;21.30;8.52;;;4.20;77.50;;;;;;5018843;28;20049;-66
2021/11/26 05:11:01;;;;;;;17.73;8.02;;;4.20;77.50;;;;;;5012323;28;20423;-65
2021/11/26 05:13:32;;;;;;;18.05;9.27;;;4.20;77.60;;;;;;5013246;28;20052;-65
2021/11/26 05:16:01;;;;;;;15.35;7.53;;;4.20;77.70;;;;;;5019876;28;20045;-65
2021/11/26 05:18:31;;;;;;;17.75;8.10;;;4.20;77.80;;;;;;5020108;28;20037;-66
2021/11/26 05:20:58;;;;;;;17.65;8.63;;;4.20;77.80;;;;;;5019495;28;20058;-65
2021/11/26 05:23:26;;;;;;;15.60;7.63;;;4.20;77.80;;;;;;5020306;28;20050;-64
2021/11/26 05:25:54;;;;;;;15.35;7.47;;;4.20;77.80;;;;;;5018890;28;20041;-64
2021/11/26 05:28:21;;;;;;;19.98;8.25;;;4.20;77.60;;;;;;5019891;28;20071;-64
2021/11/26 05:30:48;;;;;;;15.20;7.07;;;4.20;77.60;;;;;;5018888;28;20063;-65
2021/11/26 05:33:15;;;;;;;15.52;8.95;;;4.10;77.50;;;;;;5021881;28;20168;-65
2021/11/26 05:35:42;;;;;;;20.02;8.48;;;4.10;77.50;;;;;;5021185;28;20046;-65
2021/11/26 05:38:09;;;;;;;21.55;9.40;;;4.10;77.60;;;;;;5019565;28;20077;-64
2021/11/26 05:40:37;;;;;;;16.88;7.22;;;4.00;77.50;;;;;;5020397;28;20124;-65
2021/11/26 05:43:05;;;;;;;20.38;8.30;;;4.00;77.50;;;;;;5019250;28;20045;-64
2021/11/26 05:45:32;;;;;;;20.45;8.25;;;4.00;77.60;;;;;;5020767;28;20049;-64
2021/11/26 05:48:00;;;;;;;16.27;7.97;;;4.00;77.50;;;;;;5018181;28;20061;-64
2021/11/26 05:50:29;;;;;;;20.23;7.82;;;3.90;77.50;;;;;;5023300;28;20045;-64
2021/11/26 05:52:56;;;;;;;21.08;8.68;;;3.90;77.50;;;;;;5019521;28;20050;-65
2021/11/26 05:55:25;;;;;;;17.52;8.77;;;3.90;77.60;;;;;;5019334;28;20136;-67
2021/11/26 05:57:53;;;;;;;19.35;8.18;;;3.90;77.70;;;;;;5019130;28;20068;-64
2021/11/26 06:00:23;;;;;;;17.80;8.40;;;3.80;77.90;;;;;;5015394;28;20123;-65
2021/11/26 06:02:51;;;;;;;19.95;8.52;;;3.80;78.00;;;;;;5024433;28;20048;-65
2021/11/26 06:05:19;;;;;;;21.48;10.43;;;3.80;78.10;;;;;;5025569;28;20042;-65
2021/11/26 06:07:46;;;;;;;26.30;10.25;;;3.80;78.20;;;;;;5019139;28;20061;-65
2021/11/26 06:10:15;;;;;;;15.98;8.20;;;3.80;78.20;;;;;;5014811;28;21303;-65
2021/11/26 06:12:44;;;;;;;18.50;8.98;;;3.80;78.30;;;;;;5032659;28;20515;-65
2021/11/26 06:15:14;;;;;;;20.67;8.50;;;3.80;78.30;;;;;;5015984;28;20057;-65
2021/11/26 06:17:43;;;;;;;14.05;7.03;;;3.80;78.40;;;;;;5017099;28;20137;-65
2021/11/26 06:20:12;;;;;;;14.82;7.25;;;3.80;78.40;;;;;;5016627;28;20042;-66
2021/11/26 06:22:41;;;;;;;16.45;7.30;;;3.80;78.50;;;;;;5017967;28;20071;-65
2021/11/26 06:25:09;;;;;;;14.27;7.60;;;3.90;78.40;;;;;;5019020;28;20047;-64
2021/11/26 06:27:36;;;;;;;15.68;6.63;;;3.90;78.40;;;;;;5017940;28;20057;-65
2021/11/26 06:30:05;;;;;;;18.30;7.50;;;3.80;78.40;;;;;;5017619;28;20125;-64
2021/11/26 06:32:34;;;;;;;15.65;6.78;;;3.90;78.50;;;;;;5014579;28;20095;-64
2021/11/26 06:35:02;;;;;;;14.68;6.10;;;3.90;78.50;;;;;;5009374;28;20052;-66
2021/11/26 06:37:30;;;;;;;13.02;5.43;;;3.90;78.60;;;;;;5018593;28;20033;-64
2021/11/26 06:39:56;;;;;;;15.73;7.18;;;3.90;78.70;;;;;;5015817;28;20180;-66
2021/11/26 06:42:23;;;;;;;14.98;6.70;;;3.90;78.60;;;;;;5018320;28;21419;-64
2021/11/26 06:44:52;;;;;;;15.88;7.45;;;3.80;78.70;;;;;;5020686;28;20145;-65
2021/11/26 06:47:20;;;;;;;12.68;6.15;;;3.80;78.70;;;;;;5019501;28;20586;-65
2021/11/26 06:49:48;;;;;;;15.15;7.72;;;3.90;78.70;;;;;;5020181;28;20443;-64
2021/11/26 06:52:17;;;;;;;16.52;7.43;;;3.90;78.60;;;;;;5020796;28;20045;-63
2021/11/26 06:54:44;;;;;;;14.60;6.30;;;3.90;78.50;;;;;;5019656;28;20053;-65
2021/11/26 06:57:11;;;;;;;15.00;7.50;;;3.80;78.40;;;;;;5015562;28;20139;-66
2021/11/26 06:59:38;;;;;;;14.65;7.18;;;3.80;78.40;;;;;;5018593;28;20037;-67
2021/11/26 07:02:06;;;;;;;16.05;6.78;;;3.80;78.50;;;;;;5014656;28;20050;-64
2021/11/26 07:04:33;;;;;;;16.27;6.80;;;3.70;78.50;;;;;;4997778;28;21146;-65
2021/11/26 07:07:01;;;;;;;15.18;6.75;;;3.70;78.40;;;;;;4997433;28;20762;-65
2021/11/26 07:09:30;;;;;;;15.15;7.32;;;3.70;78.40;;;;;;4996073;28;20050;-66
2021/11/26 07:11:57;;;;;;;13.27;5.82;;;3.70;78.60;;;;;;4999277;28;20038;-65
2021/11/26 07:14:24;;;;;;;12.48;5.28;;;3.70;78.70;;;;;;4998119;28;20365;-64
2021/11/26 07:16:51;;;;;;;12.23;5.60;;;3.70;78.80;;;;;;4999014;28;20124;-65
2021/11/26 07:19:19;;;;;;;11.05;5.50;;;3.70;78.80;;;;;;4998958;28;20487;-65
2021/11/26 07:21:45;;;;;;;13.55;6.20;;;3.80;78.90;;;;;;4998946;28;20045;-65
2021/11/26 07:24:13;;;;;;;14.23;5.65;;;3.70;79.00;;;;;;5000991;28;20079;-65
2021/11/26 07:26:41;;;;;;;15.27;6.22;;;3.80;79.00;;;;;;4998000;28;20128;-64
2021/11/26 07:29:08;;;;;;;13.35;5.22;;;3.70;79.00;;;;;;4997140;28;20514;-64
2021/11/26 07:31:35;;;;;;;11.10;5.70;;;3.80;79.00;;;;;;4995687;28;20046;-65
2021/11/26 07:34:02;;;;;;;12.80;4.95;;;3.80;78.90;;;;;;4999564;28;20068;-64
2021/11/26 07:36:29;;;;;;;12.50;5.30;;;3.80;78.80;;;;;;4997325;28;20056;-64
2021/11/26 07:38:56;;;;;;;12.65;6.40;;;3.80;78.90;;;;;;4994740;28;20145;-64
2021/11/26 07:41:24;;;;;;;11.25;5.90;;;3.80;79.00;;;;;;4996715;28;20052;-65
2021/11/26 07:43:55;;;;;;;10.40;4.70;;;3.80;79.00;;;;;;4985302;28;20484;-64
2021/11/26 07:46:22;;;;;;;14.55;6.93;;;3.80;79.00;;;;;;4994538;28;20046;-65
2021/11/26 07:48:51;;;;;;;16.38;7.18;;;3.90;79.10;;;;;;4998753;28;20037;-64
2021/11/26 07:51:21;;;;;;;15.52;6.57;;;3.90;79.10;;;;;;4986269;28;20563;-65
2021/11/26 07:53:48;;;;;;;10.32;5.25;;;3.90;79.00;;;;;;4994425;28;20048;-65
2021/11/26 07:56:15;;;;;;;11.85;5.78;;;3.90;79.00;;;;;;4995751;28;21770;-64
2021/11/26 07:58:42;;;;;;;16.85;6.43;;;3.90;79.00;;;;;;4995140;28;20041;-64
2021/11/26 08:01:14;;;;;;;13.68;6.30;;;4.00;79.00;;;;;;4990434;28;20042;-65
2021/11/26 08:03:41;;;;;;;14.55;5.68;;;4.00;79.00;;;;;;5017003;28;20142;-64
2021/11/26 08:06:08;;;;;;;12.88;6.32;;;4.10;78.80;;;;;;5025460;28;20049;-65
2021/11/26 08:08:36;;;;;;;13.85;6.95;;;4.20;78.80;;;;;;5015705;28;20053;-64
2021/11/26 08:11:03;;;;;;;17.23;7.22;;;4.20;78.80;;;;;;5019215;28;20053;-64
2021/11/26 08:13:37;;;;;;;21.10;7.88;;;4.20;78.80;;;;;;5019763;28;20049;-65
2021/11/26 08:16:06;;;;;;;14.32;8.05;;;4.20;78.80;;;;;;5017643;28;20619;-64
2021/11/26 08:18:36;;;;;;;17.63;7.43;;;4.20;78.70;;;;;;5021677;28;20124;-66
2021/11/26 08:21:04;;;;;;;14.45;7.53;;;4.20;78.80;;;;;;5010059;28;20077;-65
2021/11/26 08:23:34;;;;;;;16.52;8.07;;;4.20;78.80;;;;;;5020825;28;20054;-64
2021/11/26 08:26:01;;;;;;;15.18;8.00;;;4.30;78.70;;;;;;5020586;28;20041;-64
2021/11/26 08:28:31;;;;;;;17.30;7.97;;;4.30;78.50;;;;;;5021935;28;20049;-65
2021/11/26 08:30:59;;;;;;;15.90;7.97;;;4.30;78.60;;;;;;5020832;28;20041;-65
2021/11/26 08:33:26;;;;;;;12.25;6.85;;;4.40;78.60;;;;;;5021059;28;20064;-64
2021/11/26 08:35:55;;;;;;;16.23;8.27;;;4.40;78.60;;;;;;5022691;28;20045;-64
2021/11/26 08:38:22;;;;;;;15.60;8.13;;;4.40;78.70;;;;;;5017703;28;20054;-65
2021/11/26 08:40:49;;;;;;;18.33;7.78;;;4.50;78.60;;;;;;5021510;28;20081;-63
2021/11/26 08:43:17;;;;;;;15.90;7.78;;;4.50;78.60;;;;;;5021685;28;20058;-64
2021/11/26 08:45:44;;;;;;;17.95;7.47;;;4.50;78.70;;;;;;5021119;28;20121;-64
2021/11/26 08:48:12;;;;;;;16.05;7.82;;;4.60;78.60;;;;;;5021036;28;20049;-64
2021/11/26 08:50:40;;;;;;;17.75;8.52;;;4.60;78.60;;;;;;5021639;28;20100;-65
2021/11/26 08:53:10;;;;;;;18.33;8.07;;;4.70;78.50;;;;;;5021895;28;20120;-68
2021/11/26 08:55:46;;;;;;;15.10;7.22;;;4.70;78.40;;;;;;5022209;28;20048;-65
2021/11/26 08:58:14;;;;;;;15.38;8.98;;;4.70;78.40;;;;;;5013491;28;20060;-64
2021/11/26 09:03:16;;;;;;;20.15;8.77;;;4.80;78.30;;;;;;4481473;22;20588;-69
2021/11/26 09:05:44;;;;;;;14.52;6.80;;;4.80;78.30;;;;;;4948411;28;20054;-67
2021/11/26 09:08:15;;;;;;;19.13;10.30;;;4.80;78.30;;;;;;4957875;28;20509;-68
2021/11/26 09:10:44;;;;;;;25.05;14.50;;;4.80;78.30;;;;;;4956850;28;20577;-66
2021/11/26 09:13:13;;;;;;;21.48;11.90;;;4.90;78.30;;;;;;4959615;28;20493;-68
2021/11/26 09:15:41;;;;;;;18.20;10.75;;;4.90;78.20;;;;;;4959320;28;20055;-67
2021/11/26 09:18:10;;;;;;;22.08;11.32;;;4.90;78.00;;;;;;4953625;28;20051;-69
2021/11/26 09:20:40;;;;;;;19.15;9.73;;;4.90;77.80;;;;;;4954567;28;20069;-69
2021/11/26 09:23:14;;;;;;;16.50;8.93;;;5.00;77.70;;;;;;4955776;28;20057;-68
2021/11/26 09:25:43;;;;;;;16.90;9.20;;;5.00;77.70;;;;;;4957697;28;20125;-68
2021/11/26 09:28:13;;;;;;;19.80;9.67;;;5.00;77.60;;;;;;4954832;28;20192;-69
2021/11/26 09:30:41;;;;;;;15.77;7.23;;;5.00;77.50;;;;;;4954786;28;20138;-65
2021/11/26 09:33:08;;;;;;;15.15;6.53;;;5.00;77.60;;;;;;4954276;28;20287;-66
2021/11/26 09:35:38;;;;;;;21.30;9.48;;;5.10;77.40;;;;;;4952621;28;20050;-67
2021/11/26 09:38:07;;;;;;;18.13;7.88;;;5.10;77.30;;;;;;4950450;28;20418;-68
2021/11/26 09:40:34;;;;;;;19.88;8.45;;;5.10;77.20;;;;;;4953456;28;20443;-66
2021/11/26 09:43:05;;;;;;;18.15;8.68;;;5.20;77.20;;;;;;4957629;28;20129;-66
2021/11/26 09:45:35;;;;;;;18.10;8.38;;;5.20;77.20;;;;;;4956030;28;20058;-67
2021/11/26 09:48:03;;;;;;;18.33;9.20;;;5.20;77.20;;;;;;4928119;28;20046;-69
2021/11/26 09:50:33;;;;;;;18.45;7.97;;;5.20;77.20;;;;;;4953308;28;20047;-69
2021/11/26 09:53:22;;;;;;;20.92;7.57;;;5.20;77.10;;;;;;4957067;28;20172;-67
2021/11/26 09:55:52;;;;;;;17.30;7.72;;;5.30;76.90;;;;;;4948866;28;20656;-67
2021/11/26 09:58:25;;;;;;;15.52;8.15;;;5.30;76.90;;;;;;4962257;28;20483;-68
2021/11/26 10:00:53;;;;;;;15.50;7.05;;;5.30;76.80;;;;;;4951426;28;20105;-68
2021/11/26 10:03:23;;;;;;;14.43;6.65;;;5.40;76.80;;;;;;4975595;28;20748;-66
2021/11/26 10:05:52;;;;;;;18.38;7.88;;;5.40;76.70;;;;;;4972525;28;20058;-68
2021/11/26 10:08:23;;;;;;;17.52;8.63;;;5.40;76.80;;;;;;4973968;28;20145;-69
2021/11/26 10:10:57;;;;;;;16.90;7.80;;;5.40;76.80;;;;;;4977340;28;20059;-69
2021/11/26 10:13:29;;;;;;;16.77;7.57;;;5.50;76.70;;;;;;4972501;28;20042;-69
2021/11/26 10:15:56;;;;;;;18.67;8.00;;;5.50;76.60;;;;;;4973208;28;20046;-68
2021/11/26 10:18:25;;;;;;;14.40;7.53;;;5.60;76.40;;;;;;4975085;28;20140;-66
2021/11/26 10:21:02;;;;;;;16.00;8.23;;;5.60;76.30;;;;;;4975446;28;20551;-69
2021/11/26 10:23:33;;;;;;;14.95;8.10;;;5.60;76.20;;;;;;4973764;28;20100;-67
2021/11/26 10:26:12;;;;;;;14.60;7.28;;;5.60;76.20;;;;;;4971450;28;20051;-66
2021/11/26 10:28:41;;;;;;;17.40;7.10;;;5.60;76.40;;;;;;5000622;28;20390;-66
2021/11/26 10:31:17;;;;;;;16.47;7.27;;;5.70;76.30;;;;;;4973582;28;20488;-68
2021/11/26 10:33:45;;;;;;;19.15;8.32;;;5.60;76.30;;;;;;4974097;28;20053;-68
2021/11/26 10:36:12;;;;;;;15.05;7.63;;;5.70;76.20;;;;;;4975956;28;20359;-67
2021/11/26 10:38:39;;;;;;;17.27;7.50;;;5.70;76.20;;;;;;4975020;28;20057;-66
2021/11/26 10:41:09;;;;;;;20.40;7.35;;;5.70;76.10;;;;;;4973613;28;20058;-67
2021/11/26 10:43:41;;;;;;;14.23;6.13;;;5.70;76.00;;;;;;4977619;28;20159;-69
2021/11/26 10:49:04;;;;;;;13.73;6.47;;;5.70;76.00;;;;;;4935926;28;20058;-66
2021/11/26 10:51:41;;;;;;;15.50;6.68;;;5.70;76.00;;;;;;4973650;28;20047;-69
2021/11/26 10:59:41;;;;;;;13.48;6.68;;;5.70;76.00;;;;;;4972049;28;20043;-68
2021/11/26 11:02:10;;;;;;;15.40;7.00;;;5.70;76.00;;;;;;4971977;28;20050;-69
2021/11/26 11:04:38;;;;;;;15.77;5.95;;;5.70;76.00;;;;;;5042670;28;20497;-68
2021/11/26 11:07:08;;;;;;;15.48;7.75;;;5.70;76.10;;;;;;4976002;28;20051;-68
2021/11/26 11:09:42;;;;;;;15.05;6.50;;;5.80;75.90;;;;;;4978103;28;20147;-68
2021/11/26 11:12:10;;;;;;;14.38;6.95;;;5.80;75.80;;;;;;4977258;28;20181;-70
2021/11/26 11:14:37;;;;;;;14.70;6.88;;;5.80;76.00;;;;;;4975452;28;20138;-67
2021/11/26 11:17:04;;;;;;;14.93;6.88;;;5.80;76.00;;;;;;4975280;28;20109;-69
2021/11/26 11:19:33;;;;;;;14.10;5.93;;;5.90;75.90;;;;;;4974835;28;20054;-68
2021/11/26 11:22:00;;;;;;;15.20;6.60;;;5.90;75.90;;;;;;4973051;28;20042;-68
2021/11/26 11:24:30;;;;;;;14.43;6.13;;;5.90;75.80;;;;;;4975262;28;20058;-67
2021/11/26 11:26:57;;;;;;;16.55;6.35;;;5.90;75.90;;;;;;4977143;28;20561;-68
2021/11/26 11:29:27;;;;;;;14.98;6.10;;;5.90;75.90;;;;;;4975309;28;20058;-66
2021/11/26 11:31:56;;;;;;;19.30;6.77;;;6.00;75.90;;;;;;4974307;28;20070;-68
2021/11/26 11:34:26;;;;;;;13.73;6.50;;;6.00;75.70;;;;;;4976489;28;20114;-69
2021/11/26 11:36:57;;;;;;;16.27;6.68;;;6.00;75.70;;;;;;4976361;28;20043;-67
2021/11/26 11:39:25;;;;;;;15.00;6.53;;;6.00;75.70;;;;;;4973894;28;20046;-68
2021/11/26 11:41:54;;;;;;;16.05;5.65;;;6.00;75.60;;;;;;4969237;28;20061;-67
2021/11/26 11:44:27;;;;;;;16.63;6.93;;;6.00;75.60;;;;;;4977786;28;20137;-66
2021/11/26 11:46:54;;;;;;;16.00;6.00;;;5.90;75.70;;;;;;4975430;28;20057;-68
2021/11/26 11:49:27;;;;;;;16.30;6.00;;;6.00;75.80;;;;;;4984215;28;20161;-67
2021/11/26 11:51:59;;;;;;;15.80;6.32;;;6.00;75.90;;;;;;4983042;28;20050;-67
2021/11/26 11:54:37;;;;;;;16.80;6.65;;;6.00;75.50;;;;;;4985826;28;20125;-67
2021/11/26 11:57:06;;;;;;;20.90;8.27;;;6.00;75.30;;;;;;4988308;28;20051;-68
2021/11/26 11:59:35;;;;;;;19.73;7.32;;;6.00;75.10;;;;;;4982348;28;20507;-67
2021/11/26 12:02:04;;;;;;;16.83;6.03;;;6.00;75.00;;;;;;4978573;28;20137;-66
2021/11/26 12:04:37;;;;;;;15.27;5.38;;;5.90;75.20;;;;;;4984766;28;20141;-68
2021/11/26 12:07:07;;;;;;;10.88;4.88;;;5.90;75.30;;;;;;4984937;28;20046;-66
2021/11/26 12:09:36;;;;;;;12.18;5.45;;;5.90;75.30;;;;;;4978502;28;20062;-66
2021/11/26 12:12:12;;;;;;;10.95;5.13;;;5.90;75.50;;;;;;4980305;28;20053;-67
2021/11/26 12:14:46;;;;;;;11.65;4.50;;;5.90;75.50;;;;;;4985934;28;20046;-67
2021/11/26 12:17:26;;;;;;;13.38;4.82;;;5.90;75.60;;;;;;4986135;28;20133;-67
2021/11/26 12:20:01;;;;;;;12.65;5.03;;;5.90;75.70;;;;;;4984671;28;20038;-67
2021/11/26 12:22:39;;;;;;;11.13;4.97;;;5.90;75.70;;;;;;4981618;28;20042;-68
2021/11/26 12:25:20;;;;;;;10.52;4.68;;;5.90;75.80;;;;;;4981492;28;20091;-67
2021/11/26 12:27:55;;;;;;;;;;;5.80;76.00;;;;;;4986031;28;20088;-67
2021/11/26 12:30:22;;;;;;;10.45;5.18;;;5.90;76.10;;;;;;4983197;28;19926;-69
2021/11/26 12:32:49;;;;;;;12.55;4.97;;;5.80;76.20;;;;;;4984441;28;20452;-67
2021/11/26 12:35:17;;;;;;;14.73;4.90;;;5.80;76.50;;;;;;4976587;28;20054;-66
2021/11/26 12:37:48;;;;;;;13.45;4.90;;;5.80;77.00;;;;;;4979790;28;20070;-68
2021/11/26 12:40:16;;;;;;;14.30;5.70;;;5.80;77.40;;;;;;4977651;28;20054;-68
2021/11/26 12:42:44;;;;;;;14.50;4.85;;;5.70;77.70;;;;;;4977276;28;20050;-69
2021/11/26 12:45:12;;;;;;;9.15;4.60;;;5.70;78.00;;;;;;4981234;28;20047;-68
2021/11/26 12:47:42;;;;;;;10.45;4.50;;;5.70;78.20;;;;;;4981547;28;20161;-67
2021/11/26 12:53:06;;;;;;;12.48;5.57;;;5.70;78.90;;;;;;4978310;28;20042;-68
2021/11/26 12:55:34;;;;;;;10.02;4.63;;;5.60;79.30;;;;;;4982918;28;20076;-70
2021/11/26 12:58:02;;;;;;;12.70;5.40;;;5.60;79.40;;;;;;4979655;28;20058;-68
2021/11/26 13:00:30;;;;;;;12.38;5.22;;;5.60;79.70;;;;;;4978917;28;20099;-67
2021/11/26 13:03:06;;;;;;;12.55;5.80;;;5.60;80.10;;;;;;4969718;28;20046;-70
2021/11/26 13:05:33;;;;;;;12.57;6.20;;;5.50;80.30;;;;;;4984927;28;20078;-67
2021/11/26 13:08:01;;;;;;;13.07;5.68;;;5.50;80.70;;;;;;4982200;28;20047;-68
2021/11/26 13:10:30;;;;;;;11.18;5.65;;;5.50;81.00;;;;;;4983973;28;20058;-67